createdAt,value
2023-03-11T00:00:55.461Z,1.10
2023-03-11T00:03:25.668Z,1.10
2023-03-11T00:05:53.589Z,1.13
2023-03-11T00:08:23.519Z,1.47
2023-03-11T00:10:55.842Z,1.00
2023-03-11T00:13:23.294Z,1.10
2023-03-11T00:15:52.954Z,0.90
2023-03-11T00:18:19.684Z,0.90
2023-03-11T00:20:46.986Z,1.10
2023-03-11T00:23:15.145Z,1.00
2023-03-11T00:25:44.428Z,1.00
2023-03-11T00:28:11.953Z,1.00
2023-03-11T00:30:40.926Z,0.83
2023-03-11T00:33:09.042Z,0.90
2023-03-11T00:35:36.113Z,0.90
2023-03-11T00:38:06.118Z,0.80
2023-03-11T00:40:35.107Z,0.80
2023-03-11T00:43:02.059Z,0.90
2023-03-11T00:45:29.221Z,1.20
2023-03-11T00:47:56.337Z,1.20
2023-03-11T00:50:26.652Z,1.27
2023-03-11T00:52:53.380Z,0.80
2023-03-11T00:55:25.702Z,0.93
2023-03-11T00:57:54.678Z,0.90
2023-03-11T01:00:23.236Z,0.90
2023-03-11T01:02:50.965Z,0.80
2023-03-11T01:05:20.657Z,1.00
2023-03-11T01:07:47.972Z,1.10
2023-03-11T01:10:15.237Z,1.00
2023-03-11T01:12:43.156Z,1.00
2023-03-11T01:15:16.560Z,0.90
2023-03-11T01:17:43.531Z,1.00
2023-03-11T01:20:11.499Z,1.00
2023-03-11T01:22:38.431Z,0.90
2023-03-11T01:25:05.455Z,1.13
2023-03-11T01:27:32.429Z,1.10
2023-03-11T01:29:59.176Z,0.83
2023-03-11T01:32:25.866Z,1.23
2023-03-11T01:34:52.533Z,1.10
2023-03-11T01:37:20.435Z,1.10
2023-03-11T01:39:47.068Z,0.97
2023-03-11T01:42:13.948Z,0.90
2023-03-11T01:44:40.557Z,1.07
2023-03-11T01:47:09.994Z,1.30
2023-03-11T01:49:41.884Z,1.00
2023-03-11T01:52:09.675Z,1.10
2023-03-11T01:54:39.568Z,0.90
2023-03-11T01:57:12.410Z,1.40
2023-03-11T01:59:43.928Z,1.30
2023-03-11T02:02:25.273Z,1.03
2023-03-11T02:04:52.474Z,1.03
2023-03-11T02:07:19.163Z,1.87
2023-03-11T02:09:45.928Z,1.00
2023-03-11T02:12:14.968Z,0.87
2023-03-11T02:14:46.241Z,0.93
2023-03-11T02:17:13.591Z,1.20
2023-03-11T02:19:58.979Z,0.80
2023-03-11T02:22:28.301Z,0.90
2023-03-11T02:25:14.778Z,1.30
2023-03-11T02:27:45.248Z,0.90
2023-03-11T02:30:13.743Z,0.90
2023-03-11T02:32:43.354Z,1.00
2023-03-11T02:35:10.913Z,1.53
2023-03-11T02:37:37.590Z,0.80
2023-03-11T02:40:22.212Z,1.33
2023-03-11T02:42:51.792Z,0.73
2023-03-11T02:45:22.318Z,0.80
2023-03-11T02:47:49.682Z,0.80
2023-03-11T02:50:18.277Z,0.87
2023-03-11T02:52:45.407Z,0.90
2023-03-11T02:55:12.236Z,0.90
2023-03-11T02:57:39.180Z,0.80
2023-03-11T03:00:14.566Z,0.80
2023-03-11T03:02:42.258Z,0.93
2023-03-11T03:05:09.553Z,0.80
2023-03-11T03:07:37.186Z,0.93
2023-03-11T03:10:06.013Z,1.00
2023-03-11T03:12:32.664Z,1.10
2023-03-11T03:14:59.304Z,1.30
2023-03-11T03:17:25.983Z,1.30
2023-03-11T03:19:52.664Z,1.23
2023-03-11T03:22:19.383Z,1.17
2023-03-11T03:24:46.153Z,1.00
2023-03-11T03:27:12.757Z,1.10
2023-03-11T03:29:39.557Z,0.80
2023-03-11T03:32:06.607Z,0.80
2023-03-11T03:34:33.532Z,1.00
2023-03-11T03:37:00.356Z,1.10
2023-03-11T03:39:28.787Z,1.20
2023-03-11T03:41:57.057Z,0.93
2023-03-11T03:44:23.898Z,0.80
2023-03-11T03:46:50.660Z,1.00
2023-03-11T03:49:17.367Z,0.90
2023-03-11T03:51:43.979Z,1.30
2023-03-11T03:54:10.623Z,1.00
2023-03-11T03:56:37.276Z,1.13
2023-03-11T03:59:04.061Z,1.10
2023-03-11T04:01:30.718Z,1.77
2023-03-11T04:03:57.564Z,1.10
2023-03-11T04:06:26.754Z,1.53
2023-03-11T04:08:54.767Z,1.00
2023-03-11T04:11:22.169Z,1.20
2023-03-11T04:13:49.103Z,1.30
2023-03-11T04:16:21.570Z,1.27
2023-03-11T04:18:48.929Z,1.27
2023-03-11T04:21:16.406Z,1.20
2023-03-11T04:23:43.085Z,1.13
2023-03-11T04:26:09.724Z,1.10
2023-03-11T04:28:36.350Z,1.57
2023-03-11T04:31:03.152Z,2.23
2023-03-11T04:33:29.933Z,1.33
2023-03-11T04:35:57.121Z,2.43
2023-03-11T04:38:23.920Z,1.20
2023-03-11T04:40:50.644Z,1.13
2023-03-11T04:43:17.441Z,1.87
2023-03-11T04:45:44.050Z,1.83
2023-03-11T04:48:10.818Z,1.37
2023-03-11T04:50:37.495Z,1.10
2023-03-11T04:53:04.129Z,1.17
2023-03-11T04:55:30.856Z,1.20
2023-03-11T04:57:57.742Z,1.20
2023-03-11T05:00:25.165Z,1.27
2023-03-11T05:02:52.677Z,1.00
2023-03-11T05:05:20.142Z,1.33
2023-03-11T05:07:47.654Z,1.20
2023-03-11T05:10:15.283Z,1.30
2023-03-11T05:12:41.929Z,1.40
2023-03-11T05:15:08.758Z,1.50
2023-03-11T05:17:35.459Z,1.10
2023-03-11T05:20:02.421Z,1.10
2023-03-11T05:22:29.048Z,1.23
2023-03-11T05:24:55.777Z,1.70
2023-03-11T05:27:22.640Z,1.60
2023-03-11T05:29:49.300Z,5.20
2023-03-11T05:32:16.085Z,1.30
2023-03-11T05:34:42.844Z,1.23
2023-03-11T05:37:09.534Z,1.50
2023-03-11T05:39:37.682Z,1.93
2023-03-11T05:42:05.560Z,1.70
2023-03-11T05:44:33.029Z,1.70
2023-03-11T05:46:59.935Z,1.40
2023-03-11T05:49:27.336Z,1.30
2023-03-11T05:51:55.658Z,2.13
2023-03-11T05:54:23.385Z,2.47
2023-03-11T05:56:50.080Z,1.30
2023-03-11T05:59:17.659Z,2.10
2023-03-11T06:01:45.222Z,1.70
2023-03-11T06:04:12.030Z,1.20
2023-03-11T06:06:41.167Z,8.40
2023-03-11T06:09:13.453Z,10.97
2023-03-11T06:11:40.316Z,1.97
2023-03-11T06:14:07.381Z,1.63
2023-03-11T06:16:34.130Z,1.70
2023-03-11T06:19:01.114Z,1.30
2023-03-11T06:21:28.062Z,1.60
2023-03-11T06:23:55.188Z,1.70
2023-03-11T06:26:23.560Z,2.30
2023-03-11T06:28:52.311Z,3.83
2023-03-11T06:31:27.415Z,1.63
2023-03-11T06:33:59.292Z,1.50
2023-03-11T06:36:26.659Z,1.80
2023-03-11T06:38:53.844Z,1.57
2023-03-11T06:41:20.577Z,2.07
2023-03-11T06:43:47.352Z,1.70
2023-03-11T06:46:18.063Z,1.97
2023-03-11T06:48:46.499Z,2.40
2023-03-11T06:51:13.816Z,3.00
2023-03-11T06:53:40.538Z,3.83
2023-03-11T06:56:12.588Z,2.70
2023-03-11T06:58:41.523Z,2.70
2023-03-11T07:01:16.697Z,1.30
2023-03-11T07:03:43.800Z,1.97
2023-03-11T07:06:18.967Z,2.00
2023-03-11T07:08:47.964Z,2.13
2023-03-11T07:11:17.763Z,2.20
2023-03-11T07:13:45.246Z,2.07
2023-03-11T07:16:15.713Z,2.40
2023-03-11T07:18:46.130Z,2.53
2023-03-11T07:21:15.531Z,2.30
2023-03-11T07:23:43.031Z,2.40
2023-03-11T07:26:11.017Z,2.40
2023-03-11T07:28:38.415Z,2.20
2023-03-11T07:31:09.679Z,2.70
2023-03-11T07:33:36.617Z,2.00
2023-03-11T07:36:11.692Z,2.20
2023-03-11T07:38:38.969Z,1.83
2023-03-11T07:41:06.671Z,2.10
2023-03-11T07:43:34.114Z,5.50
2023-03-11T07:46:08.673Z,3.20
2023-03-11T07:48:38.611Z,2.40
2023-03-11T07:51:07.711Z,2.27
2023-03-11T07:53:34.821Z,2.40
2023-03-11T07:56:02.557Z,2.20
2023-03-11T07:58:29.752Z,2.40
2023-03-11T08:00:57.008Z,2.33
2023-03-11T08:03:24.799Z,1.57
2023-03-11T08:05:52.217Z,1.77
2023-03-11T08:08:18.836Z,1.60
2023-03-11T08:10:45.536Z,1.43
2023-03-11T08:13:12.171Z,1.20
2023-03-11T08:15:39.046Z,2.10
2023-03-11T08:18:05.749Z,1.73
2023-03-11T08:20:32.390Z,2.70
2023-03-11T08:22:59.084Z,1.40
2023-03-11T08:25:25.980Z,1.70
2023-03-11T08:27:52.631Z,1.17
2023-03-11T08:30:19.871Z,1.20
2023-03-11T08:32:46.564Z,1.70
2023-03-11T08:35:13.214Z,1.20
2023-03-11T08:37:41.197Z,2.00
2023-03-11T08:40:10.476Z,2.80
2023-03-11T08:42:37.466Z,4.63
2023-03-11T08:45:05.019Z,2.50
2023-03-11T08:47:35.424Z,2.03
2023-03-11T08:50:03.892Z,2.40
2023-03-11T08:52:30.989Z,1.70
2023-03-11T08:54:57.719Z,1.70
2023-03-11T08:57:24.761Z,3.80
2023-03-11T08:59:51.449Z,1.90
2023-03-11T09:02:18.301Z,5.03
2023-03-11T09:04:44.911Z,2.33
2023-03-11T09:07:12.965Z,1.80
2023-03-11T09:09:39.620Z,1.60
2023-03-11T09:12:07.814Z,1.30
2023-03-11T09:14:35.448Z,1.70
2023-03-11T09:17:02.144Z,1.20
2023-03-11T09:19:29.244Z,1.40
2023-03-11T09:21:55.861Z,1.60
2023-03-11T09:24:22.610Z,1.60
2023-03-11T09:26:49.264Z,1.87
2023-03-11T09:29:15.904Z,1.80
2023-03-11T09:31:42.600Z,1.10
2023-03-11T09:34:11.078Z,1.30
2023-03-11T09:36:40.391Z,1.57
2023-03-11T09:39:07.282Z,2.07
2023-03-11T09:41:57.967Z,1.70
2023-03-11T09:44:37.119Z,2.10
2023-03-11T09:47:26.915Z,1.50
2023-03-11T09:50:25.105Z,1.77
2023-03-11T09:53:19.104Z,1.67
2023-03-11T09:55:58.884Z,1.17
2023-03-11T09:58:31.637Z,2.00
2023-03-11T10:00:58.234Z,1.70
2023-03-11T10:03:34.808Z,2.30
2023-03-11T10:06:11.812Z,1.77
2023-03-11T10:08:54.820Z,1.47
2023-03-11T10:11:50.151Z,1.87
2023-03-11T10:14:44.131Z,1.60
2023-03-11T10:17:20.013Z,1.70
2023-03-11T10:20:12.953Z,1.60
2023-03-11T10:22:54.772Z,2.27
2023-03-11T10:25:24.972Z,1.50
2023-03-11T10:28:05.460Z,1.60
2023-03-11T10:30:40.364Z,1.93
2023-03-11T10:33:26.674Z,1.83
2023-03-11T10:35:56.245Z,1.20
2023-03-11T10:38:37.276Z,1.30
2023-03-11T10:41:13.383Z,1.43
2023-03-11T10:43:52.616Z,1.80
2023-03-11T10:46:25.331Z,1.60
2023-03-11T10:48:52.106Z,1.40
2023-03-11T10:51:27.950Z,3.50
2023-03-11T10:53:59.388Z,2.50
2023-03-11T10:56:26.059Z,4.60
2023-03-11T10:58:52.783Z,3.77
2023-03-11T11:01:21.659Z,1.60
2023-03-11T11:03:51.205Z,3.63
2023-03-11T11:06:38.199Z,5.80
2023-03-11T11:09:19.205Z,2.10
2023-03-11T11:12:01.161Z,2.40
2023-03-11T11:14:42.529Z,1.43
2023-03-11T11:17:23.443Z,2.00
2023-03-11T11:19:52.028Z,1.73
2023-03-11T11:22:21.222Z,3.53
2023-03-11T11:24:51.518Z,1.90
2023-03-11T11:27:26.721Z,1.80
2023-03-11T11:30:12.287Z,1.30
2023-03-11T11:32:39.118Z,2.40
2023-03-11T11:35:13.065Z,3.50
2023-03-11T11:37:43.782Z,1.87
2023-03-11T11:40:16.839Z,1.70
2023-03-11T11:42:52.090Z,1.57
2023-03-11T11:45:43.109Z,1.53
2023-03-11T11:48:25.517Z,1.80
2023-03-11T11:50:58.813Z,1.70
2023-03-11T11:53:35.541Z,1.50
2023-03-11T11:56:02.804Z,1.10
2023-03-11T11:58:31.255Z,1.70
2023-03-11T12:01:09.599Z,1.40
2023-03-11T12:03:53.834Z,1.37
2023-03-11T12:06:35.176Z,1.30
2023-03-11T12:09:34.345Z,1.43
2023-03-11T12:12:46.821Z,1.10
2023-03-11T12:15:17.190Z,1.20
2023-03-11T12:17:47.546Z,1.50
2023-03-11T12:20:34.766Z,2.23
2023-03-11T12:23:28.651Z,1.60
2023-03-11T12:26:13.794Z,2.47
2023-03-11T12:28:56.591Z,3.20
2023-03-11T12:31:26.910Z,3.10
2023-03-11T12:34:00.185Z,4.20
2023-03-11T12:36:39.067Z,3.87
2023-03-11T12:39:24.258Z,1.83
2023-03-11T12:42:11.176Z,1.67
2023-03-11T12:44:39.425Z,1.53
2023-03-11T12:47:09.983Z,1.83
2023-03-11T12:49:44.790Z,1.30
2023-03-11T12:52:11.525Z,1.47
2023-03-11T12:54:43.433Z,2.00
2023-03-11T12:57:48.428Z,2.30
2023-03-11T13:00:33.098Z,1.90
2023-03-11T13:03:16.548Z,1.80
2023-03-11T13:06:13.735Z,1.57
2023-03-11T13:08:54.854Z,1.50
2023-03-11T13:11:32.907Z,1.60
2023-03-11T13:14:11.836Z,1.90
2023-03-11T13:16:40.290Z,1.30
2023-03-11T13:19:25.911Z,1.97
2023-03-11T13:21:59.406Z,1.80
2023-03-11T13:24:26.132Z,2.03
2023-03-11T13:26:58.775Z,1.30
2023-03-11T13:29:52.940Z,2.10
2023-03-11T13:32:50.570Z,1.57
2023-03-11T13:35:45.099Z,1.30
2023-03-11T13:38:30.466Z,2.10
2023-03-11T13:40:57.606Z,1.30
2023-03-11T13:43:26.311Z,1.80
2023-03-11T13:45:52.942Z,1.60
2023-03-11T13:48:30.157Z,2.00
2023-03-11T13:51:07.920Z,1.97
2023-03-11T13:54:02.481Z,1.60
2023-03-11T13:56:32.979Z,1.77
2023-03-11T13:59:27.012Z,1.83
2023-03-11T14:02:14.044Z,1.30
2023-03-11T14:04:47.602Z,1.90
2023-03-11T14:07:22.722Z,2.07
2023-03-11T14:09:49.424Z,1.30
2023-03-11T14:12:18.641Z,1.80
2023-03-11T14:15:00.742Z,2.17
2023-03-11T14:17:27.566Z,2.70
2023-03-11T14:20:07.868Z,2.60
2023-03-11T14:22:35.054Z,1.90
2023-03-11T14:25:08.076Z,7.20
2023-03-11T14:27:35.303Z,6.10
2023-03-11T14:30:02.259Z,3.30
2023-03-11T14:32:32.250Z,4.27
2023-03-11T14:34:59.609Z,4.40
2023-03-11T14:37:32.581Z,2.33
2023-03-11T14:39:59.412Z,3.10
2023-03-11T14:42:38.910Z,5.57
2023-03-11T14:45:18.514Z,4.00
2023-03-11T14:48:03.442Z,8.87
2023-03-11T14:50:33.659Z,2.40
2023-03-11T14:53:29.028Z,15.80
2023-03-11T14:56:15.864Z,2.77
2023-03-11T14:59:08.505Z,1.93
2023-03-11T15:01:41.793Z,2.00
2023-03-11T15:04:26.806Z,3.97
2023-03-11T15:06:54.169Z,2.40
2023-03-11T15:09:23.806Z,1.70
2023-03-11T15:11:55.117Z,2.30
2023-03-11T15:14:33.971Z,1.30
2023-03-11T15:17:35.390Z,2.80
2023-03-11T15:20:27.194Z,2.90
2023-03-11T15:23:01.212Z,1.63
2023-03-11T15:25:31.008Z,1.40
2023-03-11T15:27:57.890Z,1.43
2023-03-11T15:30:32.305Z,4.60
2023-03-11T15:32:59.798Z,2.63
2023-03-11T15:35:31.038Z,2.07
2023-03-11T15:38:23.551Z,3.00
2023-03-11T15:41:01.777Z,3.60
2023-03-11T15:43:48.631Z,3.37
2023-03-11T15:46:15.418Z,3.60
2023-03-11T15:48:42.937Z,2.17
2023-03-11T15:51:19.310Z,3.73
2023-03-11T15:53:45.969Z,1.47
2023-03-11T15:56:19.644Z,2.17
2023-03-11T15:58:46.745Z,3.70
2023-03-11T16:01:13.690Z,2.60
2023-03-11T16:03:40.398Z,2.87
2023-03-11T16:06:07.192Z,5.33
2023-03-11T16:08:34.626Z,2.53
2023-03-11T16:11:01.381Z,4.10
2023-03-11T16:13:28.150Z,4.40
2023-03-11T16:15:54.830Z,2.93
2023-03-11T16:18:21.500Z,2.90
2023-03-11T16:20:51.873Z,2.07
2023-03-11T16:23:45.018Z,1.43
2023-03-11T16:26:17.798Z,1.80
2023-03-11T16:28:44.453Z,1.40
2023-03-11T16:31:11.179Z,2.10
2023-03-11T16:33:37.863Z,2.80
2023-03-11T16:36:05.212Z,4.17
2023-03-11T16:38:36.426Z,1.50
2023-03-11T16:41:03.217Z,2.30
2023-03-11T16:43:31.762Z,3.80
2023-03-11T16:45:58.696Z,3.43
2023-03-11T16:48:25.400Z,4.23
2023-03-11T16:50:52.397Z,5.10
2023-03-11T16:53:19.181Z,7.43
2023-03-11T16:55:46.449Z,5.43
2023-03-11T16:58:14.986Z,2.77
2023-03-11T17:00:42.538Z,3.00
2023-03-11T17:03:13.089Z,3.60
2023-03-11T17:05:39.856Z,1.97
2023-03-11T17:08:07.631Z,2.37
2023-03-11T17:10:43.460Z,2.60
2023-03-11T17:13:12.961Z,2.47
2023-03-11T17:15:42.259Z,2.33
2023-03-11T17:18:08.948Z,2.20
2023-03-11T17:20:37.096Z,1.43
2023-03-11T17:23:03.828Z,1.50
2023-03-11T17:25:30.530Z,2.07
2023-03-11T17:27:58.141Z,2.50
2023-03-11T17:30:36.337Z,2.20
2023-03-11T17:33:03.870Z,2.17
2023-03-11T17:35:30.659Z,2.07
2023-03-11T17:37:57.306Z,2.50
2023-03-11T17:40:23.898Z,3.90
2023-03-11T17:42:50.661Z,5.10
2023-03-11T17:45:17.375Z,3.70
2023-03-11T17:47:44.220Z,3.07
2023-03-11T17:50:12.118Z,2.70
2023-03-11T17:52:38.808Z,2.40
2023-03-11T17:55:06.153Z,2.37
2023-03-11T17:57:44.546Z,2.23
2023-03-11T18:00:14.600Z,2.00
2023-03-11T18:02:41.553Z,2.17
2023-03-11T18:05:09.227Z,2.50
2023-03-11T18:07:38.965Z,3.23
2023-03-11T18:10:07.090Z,3.20
2023-03-11T18:12:34.414Z,2.20
2023-03-11T18:15:05.934Z,2.07
2023-03-11T18:17:34.704Z,1.87
2023-03-11T18:20:01.420Z,1.67
2023-03-11T18:22:29.260Z,1.27
2023-03-11T18:24:55.962Z,1.50
2023-03-11T18:27:24.440Z,1.70
2023-03-11T18:29:51.703Z,1.80
2023-03-11T18:32:20.648Z,1.80
2023-03-11T18:34:51.180Z,2.00
2023-03-11T18:37:17.979Z,1.87
2023-03-11T18:39:44.663Z,2.03
2023-03-11T18:42:11.560Z,1.80
2023-03-11T18:44:38.322Z,2.03
2023-03-11T18:47:04.994Z,1.90
2023-03-11T18:49:31.690Z,1.73
2023-03-11T18:51:59.075Z,2.50
2023-03-11T18:54:25.808Z,1.90
2023-03-11T18:56:52.573Z,2.27
2023-03-11T18:59:19.257Z,2.50
2023-03-11T19:01:45.916Z,2.40
2023-03-11T19:04:12.583Z,2.80
2023-03-11T19:06:39.562Z,2.77
2023-03-11T19:09:06.685Z,2.20
2023-03-11T19:11:33.599Z,2.43
2023-03-11T19:14:00.243Z,2.90
2023-03-11T19:16:27.100Z,2.50
2023-03-11T19:18:55.094Z,2.80
2023-03-11T19:21:22.151Z,2.37
2023-03-11T19:23:51.823Z,2.33
2023-03-11T19:26:18.586Z,3.00
2023-03-11T19:28:45.209Z,2.90
2023-03-11T19:31:12.170Z,3.03
2023-03-11T19:33:39.574Z,3.77
2023-03-11T19:36:07.645Z,3.90
2023-03-11T19:38:35.069Z,4.07
2023-03-11T19:41:05.451Z,4.10
2023-03-11T19:43:32.862Z,5.43
2023-03-11T19:45:59.725Z,4.87
2023-03-11T19:48:26.406Z,4.20
2023-03-11T19:50:53.461Z,5.27
2023-03-11T19:53:22.744Z,6.03
2023-03-11T19:55:55.533Z,5.53
2023-03-11T19:58:23.858Z,4.73
2023-03-11T20:00:51.519Z,3.27
2023-03-11T20:03:19.325Z,4.03
2023-03-11T20:05:47.528Z,4.70
2023-03-11T20:08:17.667Z,4.23
2023-03-11T20:10:47.168Z,4.43
2023-03-11T20:13:15.734Z,4.00
2023-03-11T20:15:42.531Z,3.00
2023-03-11T20:18:09.302Z,5.23
2023-03-11T20:20:39.157Z,5.37
2023-03-11T20:23:06.202Z,4.17
2023-03-11T20:25:33.385Z,5.23
2023-03-11T20:28:01.251Z,5.50
2023-03-11T20:30:28.854Z,3.83
2023-03-11T20:32:55.996Z,4.33
2023-03-11T20:35:23.246Z,4.83
2023-03-11T20:37:50.014Z,4.33
2023-03-11T20:40:17.782Z,4.60
2023-03-11T20:42:46.944Z,4.00
2023-03-11T20:45:17.742Z,3.90
2023-03-11T20:47:44.796Z,4.13
2023-03-11T20:50:13.024Z,4.50
2023-03-11T20:52:39.735Z,4.10
2023-03-11T20:55:08.575Z,4.37
2023-03-11T20:57:36.138Z,3.60
2023-03-11T21:00:11.110Z,4.70
2023-03-11T21:02:39.471Z,5.37
2023-03-11T21:05:07.440Z,6.00
2023-03-11T21:07:34.294Z,4.17
2023-03-11T21:10:01.771Z,4.40
2023-03-11T21:12:31.114Z,4.00
2023-03-11T21:14:57.990Z,4.07
2023-03-11T21:17:25.066Z,4.17
2023-03-11T21:19:51.851Z,3.70
2023-03-11T21:22:18.685Z,3.77
2023-03-11T21:24:45.351Z,4.30
2023-03-11T21:27:12.089Z,4.37
2023-03-11T21:29:38.795Z,4.30
2023-03-11T21:32:06.388Z,3.67
2023-03-11T21:34:33.228Z,3.90
2023-03-11T21:37:00.195Z,3.33
2023-03-11T21:39:26.956Z,4.00
2023-03-11T21:41:56.621Z,4.10
2023-03-11T21:44:23.333Z,4.70
2023-03-11T21:46:50.380Z,4.63
2023-03-11T21:49:17.206Z,4.40
2023-03-11T21:51:44.035Z,4.80
2023-03-11T21:54:12.436Z,5.17
2023-03-11T21:56:39.562Z,4.73
2023-03-11T21:59:06.456Z,5.03
2023-03-11T22:01:34.248Z,4.73
2023-03-11T22:04:02.210Z,5.70
2023-03-11T22:06:30.951Z,5.67
2023-03-11T22:08:57.758Z,6.50
2023-03-11T22:11:24.431Z,4.87
2023-03-11T22:13:52.574Z,4.93
2023-03-11T22:16:20.933Z,5.10
2023-03-11T22:18:48.553Z,5.33
2023-03-11T22:21:16.193Z,6.10
2023-03-11T22:23:44.599Z,6.23
2023-03-11T22:26:11.334Z,6.13
2023-03-11T22:28:38.089Z,7.50
2023-03-11T22:31:09.560Z,6.83
2023-03-11T22:33:36.706Z,6.70
2023-03-11T22:36:04.931Z,7.10
2023-03-11T22:38:32.584Z,6.53
2023-03-11T22:41:00.394Z,5.90
2023-03-11T22:43:27.708Z,5.83
2023-03-11T22:45:54.392Z,5.97
2023-03-11T22:48:21.027Z,5.83
2023-03-11T22:50:47.951Z,5.50
2023-03-11T22:53:15.560Z,5.97
2023-03-11T22:55:43.566Z,6.00
2023-03-11T22:58:11.305Z,6.60
2023-03-11T23:00:38.679Z,6.30
2023-03-11T23:03:05.850Z,6.90
2023-03-11T23:05:34.866Z,5.70
2023-03-11T23:08:01.588Z,5.27
2023-03-11T23:10:28.187Z,6.83
2023-03-11T23:12:54.785Z,6.80
2023-03-11T23:15:21.474Z,6.57
2023-03-11T23:17:48.202Z,6.50
2023-03-11T23:20:16.539Z,5.77
2023-03-11T23:22:44.061Z,6.60
2023-03-11T23:25:14.340Z,5.83
2023-03-11T23:27:42.798Z,6.30
2023-03-11T23:30:14.879Z,6.97
2023-03-11T23:32:41.741Z,6.97
2023-03-11T23:35:08.763Z,6.60
2023-03-11T23:37:35.572Z,6.87
2023-03-11T23:40:02.353Z,6.97
2023-03-11T23:42:29.319Z,7.23
2023-03-11T23:44:55.981Z,7.30
2023-03-11T23:47:22.626Z,6.60
2023-03-11T23:49:49.290Z,7.00
2023-03-11T23:52:15.986Z,6.90
2023-03-11T23:54:42.619Z,7.57
2023-03-11T23:57:09.418Z,6.97
2023-03-11T23:59:36.094Z,8.40
